Portada
METAR-TAF:

METAR-TAF

Aeroports :

Bombai, Índia

latitud: 19-07N, longitud: 072-51E, altitud: 8 m

Observació

L'informe es va fer fa 22 minuts, a les 15:00 UTC
Vent 3 kt del Nord-Oest
Temperatura 30°C
Humitat 43%
Pressió 1013 hPa
Visibilitat: 3500 m
fum

METAR: VABB 181500Z 32003KT 3500 FU NSC 30/16 Q1013 NOSIG

Hora: 20:52 (15:22 UTC)

Pronòstic

L'informe es va fer fa 1 hora i 22 minuts, a les 14:00 UTC
Pronòstic vàlid del 18 a les 15 UTC al 18 a les 24 UTC
Vent 8 kt del Oest/Nord-Oest
Visibilitat: 4000 m
fum
Evolucionant progressivament
l' 18 a les 17 UTC al 18 a les 19 UTC
Vent 4 kt del Nord-Est
Visibilitat: 3000 m
calitja, fum
Evolucionant progressivament
l' 18 a les 20 UTC al 18 a les 22 UTC
Vent 4 kt del Est/Sud-Est
Visibilitat: 2500 m
calitja

TAF: VABB 181400Z 1815/1824 30008KT 4000 FU NSC BECMG 1817/1819 04004KT 3000 HZ FU BECMG 1820/1822 12004KT 2500 HZ

Observacions i pronòstics meteorològics de més de 4000 aeroports (METAR i TAF).

Les estacions disponibles són els punts grocs i vermells al mapa.

Posi el ratolí al punt desitjat per veure el nom de l'estació.

Feu clic per veure les observacions i els pronòstics meteorològics.

Per canviar el mapa: feu clic els botons verds amb una creu de color negre per apropar; al botó verd amb un guió per allunyar la imatge; o en les fletxes verdes per a mapes adjacents.


METAR-TAF: